Time;durP1;ratioP1;P1;durP2;ratioP2;P2;SDS_P1;SDS_P2;PMS_P1;PMS_P2;Temp;Humidity;BMP_temperature;BMP_pressure;BME280_temperature;BME280_humidity;BME280_pressure;Samples;Min_cycle;Max_cycle;Signal;HPM_P1;HPM_P2
2023/01/27 05:41:40;;;;;;;;;;;;;;;3.30;58.16;96706.25;4222107;27;10248;-63
2023/01/27 05:43:46;;;;;;;;;;;;;;;3.63;57.59;96712.56;4214794;28;5710;-63
2023/01/27 05:45:49;;;;;;;;;;;;;;;3.84;57.15;96713.03;4218634;28;5826;-62
2023/01/27 05:47:51;;;;;;;;;;;;;;;4.01;57.04;96712.19;4208854;28;5715;-63
2023/01/27 05:49:54;;;;;;;;;;;;;;;4.09;56.67;96714.03;4203774;28;5920;-63
2023/01/27 05:51:57;;;;;;;;;;;;;;;4.18;56.58;96707.84;4205148;28;5780;-62
2023/01/27 05:54:01;;;;;;;;;;;;;;;4.31;56.42;96707.44;4209910;28;5706;-62
2023/01/27 05:56:04;;;;;;;;;;;;;;;4.30;55.97;96698.78;4210168;28;5711;-63
2023/01/27 05:58:08;;;;;;;;;;;;;;;4.26;56.24;96699.22;4200061;28;5849;-63
2023/01/27 06:00:12;;;;;;;;;;;;;;;4.29;56.09;96709.38;4204941;28;5635;-63
2023/01/27 06:02:15;;;;;;;;;;;;;;;4.34;55.98;96702.72;4207159;28;5765;-64
2023/01/27 06:04:18;;;;;;;;;;;;;;;4.39;55.93;96715.31;4202928;28;5797;-63
2023/01/27 06:06:23;;;;;;;;;;;;;;;4.30;55.84;96704.00;4207713;28;5706;-63
2023/01/27 06:08:27;;;;;;;;;;;;;;;4.32;55.85;96709.09;4205621;28;5792;-64
2023/01/27 06:10:30;;;;;;;;;;;;;;;4.42;55.82;96709.78;4209846;28;5717;-64
2023/01/27 06:12:34;;;;;;;;;;;;;;;4.49;55.67;96702.94;4212466;28;5693;-64
2023/01/27 06:14:38;;;;;;;;;;;;;;;4.54;55.59;96711.16;4205935;28;5900;-63
2023/01/27 06:16:42;;;;;;;;;;;;;;;4.58;55.44;96709.03;4209232;28;5815;-64
2023/01/27 06:18:46;;;;;;;;;;;;;;;4.56;55.30;96711.00;4208138;28;5686;-64
2023/01/27 06:20:49;;;;;;;;;;;;;;;4.53;55.43;96714.75;4207655;28;5808;-64
2023/01/27 06:22:51;;;;;;;;;;;;;;;4.60;55.33;96717.53;4209510;28;5765;-64
2023/01/27 06:24:54;;;;;;;;;;;;;;;4.68;55.20;96723.63;4200899;28;5927;-64
2023/01/27 06:26:57;;;;;;;;;;;;;;;4.72;54.85;96715.44;4205277;28;5793;-64
2023/01/27 06:29:00;;;;;;;;;;;;;;;4.67;54.74;96727.22;4208710;28;5083;-64
2023/01/27 06:31:08;;;;;;;;;;;;;;;4.58;54.32;96725.56;4213613;28;7692;-64
2023/01/27 06:33:12;;;;;;;;;;;;;;;4.43;54.37;96727.13;4206158;28;6420;-64
2023/01/27 06:35:16;;;;;;;;;;;;;;;4.38;54.75;96724.97;4206285;28;5678;-64
2023/01/27 06:37:19;;;;;;;;;;;;;;;4.47;54.87;96725.00;4206842;28;5907;-64
2023/01/27 06:39:22;;;;;;;;;;;;;;;4.58;54.77;96729.97;4207419;28;5706;-64
2023/01/27 06:41:25;;;;;;;;;;;;;;;4.66;54.34;96725.59;4194336;28;5694;-64
2023/01/27 06:43:28;;;;;;;;;;;;;;;4.58;54.43;96728.19;4195339;28;5683;-64
2023/01/27 06:45:30;;;;;;;;;;;;;;;4.60;54.58;96722.78;4190934;28;5106;-64
2023/01/27 06:47:34;;;;;;;;;;;;;;;4.64;54.54;96724.94;4199348;28;7705;-64
2023/01/27 06:49:37;;;;;;;;;;;;;;;4.68;54.28;96726.25;4188782;28;5846;-64
2023/01/27 06:51:40;;;;;;;;;;;;;;;4.67;54.35;96719.38;4190814;28;5703;-64
2023/01/27 06:53:43;;;;;;;;;;;;;;;4.65;54.24;96723.97;4202477;28;5686;-64
2023/01/27 06:55:46;;;;;;;;;;;;;;;4.68;54.08;96721.03;4202888;28;6391;-64
2023/01/27 06:57:48;;;;;;;;;;;;;;;4.66;53.96;96727.41;4202833;28;5773;-64
2023/01/27 06:59:51;;;;;;;;;;;;;;;4.61;54.10;96722.63;4202683;28;5761;-64
2023/01/27 07:01:54;;;;;;;;;;;;;;;4.65;54.02;96723.13;4202716;28;6502;-65
2023/01/27 07:03:58;;;;;;;;;;;;;;;4.60;53.89;96726.22;4202896;28;5689;-64
2023/01/27 07:06:01;;;;;;;;;;;;;;;4.61;53.95;96720.00;4202591;28;5706;-63
2023/01/27 07:08:04;;;;;;;;;;;;;;;4.70;53.88;96722.66;4202703;28;5701;-63
2023/01/27 07:10:08;;;;;;;;;;;;;;;4.81;53.74;96727.59;4202454;28;5694;-63
2023/01/27 07:12:11;;;;;;;;;;;;;;;4.87;53.70;96719.09;4202817;28;5900;-65
2023/01/27 07:14:13;;;;;;;;;;;;;;;4.87;53.65;96719.09;4202429;28;5705;-64
2023/01/27 07:16:16;;;;;;;;;;;;;;;4.87;53.44;96726.94;4202209;28;5690;-64
2023/01/27 07:18:19;;;;;;;;;;;;;;;4.86;53.43;96728.75;4201816;28;5694;-64
2023/01/27 07:20:26;;;;;;;;;;;;;;;4.90;53.43;96724.84;4201788;28;5693;-64
2023/01/27 07:22:30;;;;;;;;;;;;;;;4.91;53.18;96720.44;4202419;28;5686;-64
2023/01/27 07:24:32;;;;;;;;;;;;;;;4.88;53.36;96720.75;4202149;28;6532;-63
2023/01/27 07:26:35;;;;;;;;;;;;;;;4.91;53.23;96721.25;4185887;28;5715;-64
2023/01/27 07:28:38;;;;;;;;;;;;;;;4.92;53.12;96722.06;4202522;28;5694;-64
2023/01/27 07:30:42;;;;;;;;;;;;;;;4.83;52.85;96723.84;4202036;28;5693;-61
2023/01/27 07:32:44;;;;;;;;;;;;;;;4.82;53.16;96726.63;4202022;28;5702;-60
2023/01/27 07:34:47;;;;;;;;;;;;;;;4.84;53.06;96720.25;4202523;28;5698;-61
2023/01/27 07:36:53;;;;;;;;;;;;;;;4.76;52.81;96722.84;4202491;28;5685;-61
2023/01/27 07:38:55;;;;;;;;;;;;;;;4.71;53.06;96730.34;4202450;28;5818;-59
2023/01/27 07:40:58;;;;;;;;;;;;;;;4.67;53.08;96732.47;4202049;28;5849;-60
2023/01/27 07:43:02;;;;;;;;;;;;;;;4.78;53.09;96727.94;4202086;28;6488;-60
2023/01/27 07:45:08;;;;;;;;;;;;;;;4.88;53.02;96733.84;4202200;28;5839;-60
2023/01/27 07:47:11;;;;;;;;;;;;;;;4.87;52.93;96734.81;4201786;28;5682;-60
2023/01/27 07:49:14;;;;;;;;;;;;;;;4.87;52.85;96740.91;4202196;28;5701;-61
2023/01/27 07:51:16;;;;;;;;;;;;;;;4.88;52.59;96731.25;4202102;28;5734;-61
2023/01/27 07:53:21;;;;;;;;;;;;;;;4.91;52.70;96723.06;4200777;28;5761;-61
2023/01/27 07:55:23;;;;;;;;;;;;;;;4.86;52.53;96733.16;4201706;28;5687;-61
2023/01/27 07:57:26;;;;;;;;;;;;;;;4.76;52.43;96729.88;4201789;28;5987;-60
2023/01/27 07:59:29;;;;;;;;;;;;;;;4.79;52.53;96734.81;4201593;28;6923;-61
2023/01/27 08:01:32;;;;;;;;;;;;;;;4.81;52.45;96730.22;4201577;28;5695;-61
2023/01/27 08:03:36;;;;;;;;;;;;;;;4.81;52.46;96720.56;4193664;28;5682;-61
2023/01/27 08:05:39;;;;;;;;;;;;;;;4.88;52.45;96731.25;4201981;28;5800;-61
2023/01/27 08:07:41;;;;;;;;;;;;;;;4.91;52.18;96725.69;4201724;28;6388;-61
2023/01/27 08:09:46;;;;;;;;;;;;;;;4.91;52.12;96725.69;4201573;28;5702;-61
2023/01/27 08:11:48;;;;;;;;;;;;;;;4.85;52.04;96731.53;4201313;28;5846;-61
2023/01/27 08:13:52;;;;;;;;;;;;;;;4.87;51.97;96734.81;4201506;28;5769;-61
2023/01/27 08:15:56;;;;;;;;;;;;;;;4.77;51.93;96729.72;4200097;28;5627;-61
2023/01/27 08:18:01;;;;;;;;;;;;;;;4.71;52.03;96727.72;4200515;28;5782;-61
2023/01/27 08:20:05;;;;;;;;;;;;;;;4.74;51.91;96722.16;4201330;28;5690;-61
2023/01/27 08:22:07;;;;;;;;;;;;;;;4.75;51.92;96726.44;4201388;28;5781;-61
2023/01/27 08:24:11;;;;;;;;;;;;;;;4.67;51.87;96727.22;4201434;28;5757;-61
2023/01/27 08:26:15;;;;;;;;;;;;;;;4.60;51.68;96735.88;4201135;28;5798;-61
2023/01/27 08:28:19;;;;;;;;;;;;;;;4.56;51.98;96731.94;4201424;28;6375;-61
2023/01/27 08:30:25;;;;;;;;;;;;;;;4.64;51.83;96729.31;4200852;28;5804;-60
2023/01/27 08:32:27;;;;;;;;;;;;;;;4.71;51.70;96729.53;4201106;28;5780;-61
2023/01/27 08:34:30;;;;;;;;;;;;;;;4.66;51.54;96732.63;4201192;28;5705;-61
2023/01/27 08:36:33;;;;;;;;;;;;;;;4.71;51.65;96732.16;4201077;28;5686;-60
2023/01/27 08:38:37;;;;;;;;;;;;;;;4.79;51.67;96727.75;4201165;28;5902;-60
2023/01/27 08:40:41;;;;;;;;;;;;;;;4.85;51.57;96736.78;4199327;28;5710;-60
2023/01/27 08:42:45;;;;;;;;;;;;;;;4.86;51.41;96743.66;4201055;28;5689;-60
2023/01/27 08:44:48;;;;;;;;;;;;;;;4.85;51.30;96745.44;4201031;28;5756;-60
2023/01/27 08:46:51;;;;;;;;;;;;;;;4.89;51.26;96743.34;4201041;28;5702;-60
2023/01/27 08:48:54;;;;;;;;;;;;;;;4.94;51.41;96749.75;4201108;28;5981;-60
2023/01/27 08:50:57;;;;;;;;;;;;;;;5.02;51.25;96748.97;4199729;28;5639;-60
2023/01/27 08:53:00;;;;;;;;;;;;;;;5.01;51.07;96749.94;4200807;28;5828;-60
2023/01/27 08:55:03;;;;;;;;;;;;;;;4.97;50.80;96751.22;4200969;28;6379;-59
2023/01/27 08:57:06;;;;;;;;;;;;;;;4.93;51.03;96760.38;4201014;28;5690;-60
2023/01/27 08:59:10;;;;;;;;;;;;;;;4.94;51.10;96754.97;4201013;28;5781;-61
2023/01/27 09:01:14;;;;;;;;;;;;;;;5.03;51.03;96750.59;4200590;28;5698;-60
2023/01/27 09:03:18;;;;;;;;;;;;;;;5.11;50.84;96753.25;4200805;28;5835;-59
2023/01/27 09:05:22;;;;;;;;;;;;;;;5.08;50.85;96753.53;4200615;28;5819;-60
2023/01/27 09:07:24;;;;;;;;;;;;;;;5.05;51.02;96758.28;4200866;28;5793;-60
2023/01/27 09:09:27;;;;;;;;;;;;;;;5.13;50.63;96767.00;4200307;28;5690;-60
2023/01/27 09:11:30;;;;;;;;;;;;;;;5.10;50.63;96756.84;4200725;28;5789;-60
2023/01/27 09:13:33;;;;;;;;;;;;;;;5.13;50.89;96761.75;4200576;28;5777;-60
2023/01/27 09:15:39;;;;;;;;;;;;;;;5.12;50.51;96765.38;4192280;28;5682;-59
2023/01/27 09:17:42;;;;;;;;;;;;;;;4.99;50.74;96765.00;4193706;28;5876;-65
2023/01/27 09:19:45;;;;;;;;;;;;;;;4.93;50.77;96760.38;4191595;28;5832;-63
2023/01/27 09:21:48;;;;;;;;;;;;;;;4.90;50.76;96763.34;4199950;28;5836;-67
2023/01/27 09:23:51;;;;;;;;;;;;;;;4.94;50.86;96760.22;4205107;28;5830;-65
2023/01/27 09:25:54;;;;;;;;;;;;;;;4.90;50.68;96760.72;4211695;28;5855;-63
2023/01/27 09:28:01;;;;;;;;;;;;;;;4.82;50.86;96753.63;4213869;28;5702;-61
2023/01/27 09:30:05;;;;;;;;;;;;;;;4.84;50.87;96766.56;4208432;28;5707;-62
2023/01/27 09:32:11;;;;;;;;;;;;;;;4.88;50.66;96752.19;4204596;28;5094;-62
2023/01/27 09:34:16;;;;;;;;;;;;;;;4.96;50.79;96758.25;4203040;28;5702;-63
2023/01/27 09:36:21;;;;;;;;;;;;;;;5.03;50.62;96768.94;4206753;28;5758;-62
2023/01/27 09:38:25;;;;;;;;;;;;;;;5.00;50.42;96761.41;4199455;28;5895;-62
2023/01/27 09:40:32;;;;;;;;;;;;;;;4.96;50.49;96760.06;4216789;28;5664;-62
2023/01/27 09:42:58;;;;;;;;;;;;;;;5.04;50.51;96760.09;4200322;28;5681;-64
2023/01/27 09:45:20;;;;;;;;;;;;;;;5.11;50.42;96762.91;4204685;28;5690;-63
2023/01/27 09:47:37;;;;;;;;;;;;;;;5.18;50.31;96763.91;4204478;28;6024;-63
2023/01/27 09:49:56;;;;;;;;;;;;;;;5.07;50.43;96765.00;4203543;28;5754;-61
2023/01/27 09:52:14;;;;;;;;;;;;;;;5.06;50.35;96754.69;4202265;28;5665;-62
2023/01/27 09:54:34;;;;;;;;;;;;;;;5.15;50.39;96766.84;4208307;28;5661;-62
2023/01/27 09:56:46;;;;;;;;;;;;;;;5.21;50.35;96766.22;4184127;28;5841;-63
2023/01/27 09:59:06;;;;;;;;;;;;;;;5.23;50.09;96766.88;4216822;28;6362;-63
2023/01/27 10:01:21;;;;;;;;;;;;;;;5.25;50.00;96775.38;4203355;28;5698;-61
2023/01/27 10:03:43;;;;;;;;;;;;;;;5.09;50.03;96770.91;4215265;28;5660;-61
2023/01/27 10:06:18;;;;;;;;;;;;;;;4.99;50.12;96767.63;4212824;28;5956;-62
2023/01/27 10:08:35;;;;;;;;;;;;;;;5.12;50.26;96770.59;4213484;28;6346;-63
2023/01/27 10:10:49;;;;;;;;;;;;;;;5.17;50.05;96770.13;4191924;28;5836;-59
2023/01/27 10:13:10;;;;;;;;;;;;;;;5.23;49.88;96772.94;4199574;28;5431;-60
2023/01/27 10:15:28;;;;;;;;;;;;;;;5.16;49.73;96777.16;4197476;28;7031;-60
2023/01/27 10:17:41;;;;;;;;;;;;;;;5.10;49.90;96775.19;4200455;28;5797;-60
2023/01/27 10:19:57;;;;;;;;;;;;;;;5.02;49.89;96769.09;4204345;28;6350;-59
2023/01/27 10:22:11;;;;;;;;;;;;;;;4.91;49.88;96780.69;4202997;28;5693;-59
2023/01/27 10:24:24;;;;;;;;;;;;;;;4.90;50.10;96781.66;4216882;28;6300;-60
2023/01/27 10:26:34;;;;;;;;;;;;;;;4.99;50.08;96770.25;4214801;28;5682;-59
2023/01/27 10:28:38;;;;;;;;;;;;;;;5.06;49.88;96781.72;4218109;28;5644;-59
2023/01/27 10:30:49;;;;;;;;;;;;;;;5.12;49.75;96775.84;4211126;28;5798;-59
2023/01/27 10:33:00;;;;;;;;;;;;;;;5.10;49.85;96771.75;4210658;28;5665;-59
2023/01/27 10:35:15;;;;;;;;;;;;;;;5.21;49.92;96774.06;4198463;28;5785;-59
2023/01/27 10:37:25;;;;;;;;;;;;;;;5.16;49.78;96763.25;4219627;28;5657;-59
2023/01/27 10:39:38;;;;;;;;;;;;;;;5.16;49.63;96769.31;4211412;28;5665;-59
2023/01/27 10:41:51;;;;;;;;;;;;;;;5.24;49.73;96769.31;4196209;28;5820;-58
2023/01/27 10:44:11;;;;;;;;;;;;;;;5.26;49.73;96762.13;4198999;28;5912;-59
2023/01/27 10:46:20;;;;;;;;;;;;;;;5.20;49.65;96754.88;4207766;28;5673;-60
2023/01/27 10:48:35;;;;;;;;;;;;;;;5.17;49.69;96763.06;4198734;28;5679;-59
2023/01/27 10:50:45;;;;;;;;;;;;;;;5.18;49.86;96759.47;4200943;28;5616;-61
2023/01/27 10:52:56;;;;;;;;;;;;;;;5.22;49.79;96760.00;4200159;28;5698;-59
2023/01/27 10:55:04;;;;;;;;;;;;;;;5.18;49.61;96749.00;4200847;28;5673;-60
2023/01/27 10:57:11;;;;;;;;;;;;;;;5.25;49.57;96751.81;4206144;28;5742;-60
2023/01/27 10:59:22;;;;;;;;;;;;;;;5.22;49.63;96750.31;4216271;28;5684;-60
2023/01/27 11:01:31;;;;;;;;;;;;;;;5.21;49.59;96746.06;4216175;28;5831;-59
2023/01/27 11:03:40;;;;;;;;;;;;;;;5.22;49.31;96736.41;4210474;28;5680;-61
2023/01/27 11:05:51;;;;;;;;;;;;;;;5.19;49.42;96734.91;4203476;28;5669;-63
2023/01/27 11:08:00;;;;;;;;;;;;;;;5.21;49.56;96746.06;4210712;28;5850;-63
2023/01/27 11:10:10;;;;;;;;;;;;;;;5.28;49.51;96732.31;4210760;28;5690;-63
2023/01/27 11:12:16;;;;;;;;;;;;;;;5.32;49.53;96746.72;4205380;28;5791;-62
2023/01/27 11:14:27;;;;;;;;;;;;;;;5.38;49.49;96732.97;4199529;28;5800;-63
2023/01/27 11:16:35;;;;;;;;;;;;;;;5.38;49.44;96746.09;4206608;28;5704;-62
2023/01/27 11:18:38;;;;;;;;;;;;;;;5.31;49.51;96740.66;4202545;28;5685;-65
2023/01/27 11:20:45;;;;;;;;;;;;;;;5.37;49.38;96733.97;4201995;28;5686;-62
2023/01/27 11:22:54;;;;;;;;;;;;;;;5.41;49.32;96737.88;4210516;28;5672;-62
2023/01/27 11:25:04;;;;;;;;;;;;;;;5.45;49.44;96726.94;4202048;28;5738;-64
2023/01/27 11:27:15;;;;;;;;;;;;;;;5.54;49.40;96732.97;4215165;28;5767;-64
2023/01/27 11:29:26;;;;;;;;;;;;;;;5.60;49.23;96727.09;4212950;28;6316;-65
2023/01/27 11:31:38;;;;;;;;;;;;;;;5.67;49.12;96719.41;4202988;28;5873;-62
2023/01/27 11:33:53;;;;;;;;;;;;;;;5.76;49.09;96724.47;4197393;28;5902;-61
2023/01/27 11:35:56;;;;;;;;;;;;;;;5.77;49.12;96720.84;4210379;28;5694;-66
2023/01/27 11:38:00;;;;;;;;;;;;;;;5.67;48.96;96728.09;4213673;28;5680;-60
2023/01/27 11:40:21;;;;;;;;;;;;;;;5.54;49.09;96728.56;4212489;28;5792;-62
2023/01/27 11:42:28;;;;;;;;;;;;;;;5.55;49.21;96722.34;4207137;28;5818;-62
2023/01/27 11:44:34;;;;;;;;;;;;;;;5.60;49.23;96724.47;4217569;28;5688;-64
2023/01/27 11:46:37;;;;;;;;;;;;;;;5.59;49.12;96712.34;4218339;28;5756;-62
2023/01/27 11:48:43;;;;;;;;;;;;;;;5.57;49.00;96709.06;4217563;28;5836;-63
2023/01/27 11:50:46;;;;;;;;;;;;;;;5.58;49.16;96699.41;4195561;28;5722;-62
2023/01/27 11:52:54;;;;;;;;;;;;;;;5.49;49.02;96709.06;4210159;28;5687;-62
2023/01/27 11:55:05;;;;;;;;;;;;;;;5.47;49.27;96705.78;4210176;28;5657;-63
2023/01/27 11:57:17;;;;;;;;;;;;;;;5.50;49.20;96700.22;4213816;28;5705;-62
2023/01/27 11:59:24;;;;;;;;;;;;;;;5.53;49.15;96705.13;4207954;28;5705;-62
2023/01/27 12:01:39;;;;;;;;;;;;;;;5.45;48.85;96705.13;4210891;28;5675;-62
2023/01/27 12:03:52;;;;;;;;;;;;;;;5.21;49.12;96705.94;4203975;28;5748;-70
2023/01/27 12:05:59;;;;;;;;;;;;;;;5.18;49.33;96691.34;4218318;28;5758;-59
2023/01/27 12:08:04;;;;;;;;;;;;;;;5.35;49.19;96692.19;4208849;28;5693;-59
2023/01/27 12:10:29;;;;;;;;;;;;;;;5.46;49.26;96699.72;4205844;28;5653;-59
2023/01/27 12:12:37;;;;;;;;;;;;;;;5.57;49.04;96703.84;4201587;28;5686;-59
2023/01/27 12:14:47;;;;;;;;;;;;;;;5.60;48.84;96695.63;4194268;28;5689;-59
2023/01/27 12:16:52;;;;;;;;;;;;;;;5.59;49.07;96707.09;4215712;28;5681;-59
2023/01/27 12:18:59;;;;;;;;;;;;;;;5.56;49.06;96694.31;4202710;28;6074;-59
2023/01/27 12:21:04;;;;;;;;;;;;;;;5.57;48.87;96682.84;4209399;28;5680;-59
2023/01/27 12:23:19;;;;;;;;;;;;;;;5.53;49.02;96692.81;4213353;28;5803;-59
2023/01/27 12:25:26;;;;;;;;;;;;;;;5.48;48.76;96687.28;4206004;28;5706;-60
2023/01/27 12:27:39;;;;;;;;;;;;;;;5.33;49.02;96680.22;4198180;28;5710;-60
2023/01/27 12:29:48;;;;;;;;;;;;;;;5.31;49.11;96674.31;4203004;28;5829;-58
2023/01/27 12:31:55;;;;;;;;;;;;;;;5.39;49.17;96683.00;4200699;28;5848;-58
2023/01/27 12:34:00;;;;;;;;;;;;;;;5.49;49.12;96672.34;4195498;28;5690;-59
2023/01/27 12:36:11;;;;;;;;;;;;;;;5.60;49.06;96674.66;4200109;28;5690;-58
2023/01/27 12:38:19;;;;;;;;;;;;;;;5.71;48.82;96689.22;4200768;28;5776;-58
2023/01/27 12:40:24;;;;;;;;;;;;;;;5.73;49.02;96690.69;4199681;28;5900;-58
2023/01/27 12:42:38;;;;;;;;;;;;;;;5.64;48.46;96677.75;4194584;28;5802;-59
2023/01/27 12:44:42;;;;;;;;;;;;;;;5.50;48.94;96684.47;4193501;28;5797;-58
2023/01/27 12:46:58;;;;;;;;;;;;;;;5.59;49.15;96678.25;4203579;28;5694;-60
2023/01/27 12:49:09;;;;;;;;;;;;;;;5.69;49.10;96678.09;4196022;28;5792;-59
2023/01/27 12:51:16;;;;;;;;;;;;;;;5.75;48.93;96672.97;4200583;28;5711;-60
2023/01/27 12:53:20;;;;;;;;;;;;;;;5.72;48.80;96668.06;4200703;28;5686;-59
2023/01/27 12:55:28;;;;;;;;;;;;;;;5.64;48.89;96675.13;4200476;28;5756;-59
2023/01/27 12:57:32;;;;;;;;;;;;;;;5.59;48.92;96670.38;4200501;28;5694;-60
2023/01/27 12:59:45;;;;;;;;;;;;;;;5.51;49.05;96675.63;4192884;28;5757;-59
2023/01/27 13:01:59;;;;;;;;;;;;;;;5.53;49.00;96676.28;4191994;28;5802;-59
2023/01/27 13:04:05;;;;;;;;;;;;;;;5.46;48.84;96667.44;4203477;28;6626;-59
2023/01/27 13:06:14;;;;;;;;;;;;;;;5.45;48.92;96681.53;4195951;28;5706;-59
2023/01/27 13:08:19;;;;;;;;;;;;;;;5.44;48.96;96675.47;4200469;28;5694;-59
2023/01/27 13:10:26;;;;;;;;;;;;;;;5.29;48.78;96677.09;4200329;28;6472;-59
2023/01/27 13:12:34;;;;;;;;;;;;;;;5.09;49.04;96673.94;4200510;28;6400;-59
2023/01/27 13:14:41;;;;;;;;;;;;;;;5.01;49.24;96662.66;4200125;28;5784;-59
2023/01/27 13:16:51;;;;;;;;;;;;;;;4.98;49.08;96676.88;4199702;28;5694;-59
2023/01/27 13:18:56;;;;;;;;;;;;;;;4.88;49.22;96686.72;4200467;28;5915;-58
2023/01/27 13:21:07;;;;;;;;;;;;;;;4.81;49.40;96675.22;4199144;28;5797;-58
2023/01/27 13:23:17;;;;;;;;;;;;;;;4.75;49.65;96681.91;4199863;28;6482;-58
2023/01/27 13:25:24;;;;;;;;;;;;;;;4.77;49.69;96673.91;4191813;28;5686;-58
2023/01/27 13:27:35;;;;;;;;;;;;;;;4.83;49.50;96675.88;4199321;28;6400;-58
2023/01/27 13:29:42;;;;;;;;;;;;;;;4.94;49.47;96692.09;4192670;28;6411;-59
2023/01/27 13:31:51;;;;;;;;;;;;;;;5.01;49.38;96691.47;4206890;28;5667;-59
2023/01/27 13:33:59;;;;;;;;;;;;;;;4.90;49.43;96687.38;4197295;28;7749;-58
2023/01/27 13:36:07;;;;;;;;;;;;;;;4.83;49.56;96668.84;4199937;28;5682;-59
2023/01/27 13:38:15;;;;;;;;;;;;;;;4.90;49.33;96685.56;4199547;28;5686;-58
2023/01/27 13:40:22;;;;;;;;;;;;;;;4.92;49.32;96682.78;4194942;28;5699;-58
2023/01/27 13:42:28;;;;;;;;;;;;;;;4.83;49.52;96676.69;4194488;28;6534;-59
2023/01/27 13:44:37;;;;;;;;;;;;;;;4.83;49.37;96681.94;4199597;28;5705;-58
2023/01/27 13:46:43;;;;;;;;;;;;;;;4.78;49.44;96686.03;4192396;28;6068;-59
2023/01/27 13:48:50;;;;;;;;;;;;;;;4.71;49.44;96670.13;4200098;28;5723;-59
2023/01/27 13:51:02;;;;;;;;;;;;;;;4.62;49.56;96669.25;4202474;28;5702;-58
2023/01/27 13:53:08;;;;;;;;;;;;;;;4.61;49.67;96667.63;4207306;28;5709;-59
2023/01/27 13:55:12;;;;;;;;;;;;;;;4.63;49.69;96654.38;4199622;28;5686;-58
2023/01/27 13:57:31;;;;;;;;;;;;;;;4.66;49.72;96686.31;4203344;28;6502;-59
2023/01/27 13:59:40;;;;;;;;;;;;;;;4.62;49.73;96664.03;4203084;28;5803;-59
2023/01/27 14:01:50;;;;;;;;;;;;;;;4.52;49.98;96657.28;4202004;28;6380;-59
2023/01/27 14:04:19;;;;;;;;;;;;;;;4.42;49.97;96665.28;4189055;28;5946;-59
2023/01/27 14:06:37;;;;;;;;;;;;;;;4.41;50.17;96673.28;4201899;28;5671;-59
2023/01/27 14:08:53;;;;;;;;;;;;;;;4.36;50.21;96663.28;4202508;28;5686;-59
2023/01/27 14:11:09;;;;;;;;;;;;;;;4.30;50.37;96658.66;4197591;28;5833;-59
2023/01/27 14:13:26;;;;;;;;;;;;;;;4.33;50.53;96659.19;4219978;28;5732;-59
2023/01/27 14:15:35;;;;;;;;;;;;;;;4.32;50.62;96673.25;4208121;28;5727;-59
2023/01/27 14:17:45;;;;;;;;;;;;;;;4.31;50.55;96676.03;4195536;28;5694;-58
2023/01/27 14:19:59;;;;;;;;;;;;;;;4.29;50.55;96676.16;4203004;28;5703;-58
2023/01/27 14:22:10;;;;;;;;;;;;;;;4.29;50.65;96681.41;4205437;28;5718;-58
2023/01/27 14:24:22;;;;;;;;;;;;;;;4.27;50.62;96700.88;4190642;28;5824;-59
2023/01/27 14:26:40;;;;;;;;;;;;;;;4.28;50.65;96698.09;4203698;28;5687;-59
2023/01/27 14:29:02;;;;;;;;;;;;;;;4.30;50.63;96675.22;4192299;28;5704;-59
2023/01/27 14:31:11;;;;;;;;;;;;;;;4.30;50.64;96693.53;4194163;28;6576;-59
2023/01/27 14:33:23;;;;;;;;;;;;;;;4.32;50.59;96698.63;4192704;28;5702;-60
2023/01/27 14:35:31;;;;;;;;;;;;;;;4.33;50.66;96672.28;4188485;28;5703;-59
2023/01/27 14:37:44;;;;;;;;;;;;;;;4.39;50.51;96681.28;4196241;28;5813;-59
2023/01/27 14:40:00;;;;;;;;;;;;;;;4.41;50.54;96679.31;4201806;28;5686;-59
2023/01/27 14:42:11;;;;;;;;;;;;;;;4.42;50.59;96682.75;4192172;28;5788;-59
2023/01/27 14:44:21;;;;;;;;;;;;;;;4.34;50.69;96692.25;4193178;28;5942;-59
2023/01/27 14:46:42;;;;;;;;;;;;;;;4.31;50.76;96682.09;4195291;28;5765;-58
2023/01/27 14:48:57;;;;;;;;;;;;;;;4.32;50.63;96693.38;4194754;28;5787;-59
2023/01/27 14:51:08;;;;;;;;;;;;;;;4.33;50.88;96702.88;4192971;28;5821;-59
2023/01/27 14:53:36;;;;;;;;;;;;;;;4.32;50.71;96704.66;4198212;28;5818;-59
2023/01/27 14:55:46;;;;;;;;;;;;;;;4.27;50.86;96711.34;4183791;28;5785;-59
2023/01/27 14:58:01;;;;;;;;;;;;;;;4.21;50.97;96714.59;4191830;28;5708;-59
2023/01/27 15:00:19;;;;;;;;;;;;;;;4.16;50.97;96708.97;4194822;28;5785;-59
2023/01/27 15:02:39;;;;;;;;;;;;;;;4.17;51.09;96718.47;4207063;28;5685;-59
2023/01/27 15:04:58;;;;;;;;;;;;;;;4.22;50.90;96724.06;4194633;28;6494;-59
2023/01/27 15:07:08;;;;;;;;;;;;;;;4.23;50.93;96734.38;4192044;28;5838;-59
2023/01/27 15:09:23;;;;;;;;;;;;;;;4.16;50.93;96720.25;4191119;28;5798;-59
2023/01/27 15:11:48;;;;;;;;;;;;;;;4.22;50.98;96718.84;4193309;28;5682;-61
2023/01/27 15:14:13;;;;;;;;;;;;;;;4.29;50.93;96727.69;4193102;28;5835;-61
2023/01/27 15:16:35;;;;;;;;;;;;;;;4.26;50.97;96728.84;4192447;28;5777;-59
2023/01/27 15:18:57;;;;;;;;;;;;;;;4.27;50.97;96743.56;4193705;28;5705;-60
2023/01/27 15:21:22;;;;;;;;;;;;;;;4.30;51.07;96747.66;4189782;28;5810;-61
2023/01/27 15:23:47;;;;;;;;;;;;;;;4.23;50.88;96746.66;4197509;28;5787;-61
2023/01/27 15:25:52;;;;;;;;;;;;;;;4.21;51.00;96732.91;4194843;28;5801;-61
2023/01/27 15:27:56;;;;;;;;;;;;;;;4.19;51.02;96753.13;4191297;28;6382;-61
2023/01/27 15:30:05;;;;;;;;;;;;;;;4.18;51.05;96744.47;4192027;28;5682;-61
2023/01/27 15:32:21;;;;;;;;;;;;;;;4.25;51.02;96749.94;4187750;28;6045;-61
2023/01/27 15:34:27;;;;;;;;;;;;;;;4.24;51.11;96745.66;4195830;28;5961;-61
2023/01/27 15:36:34;;;;;;;;;;;;;;;4.18;51.17;96754.13;4192519;28;5580;-61
2023/01/27 15:38:36;;;;;;;;;;;;;;;4.19;51.16;96745.28;4192259;28;6533;-60
2023/01/27 15:41:03;;;;;;;;;;;;;;;4.24;51.08;96759.56;4197262;28;5838;-61
2023/01/27 15:43:14;;;;;;;;;;;;;;;4.31;51.00;96755.38;4195877;28;5694;-60
2023/01/27 15:45:28;;;;;;;;;;;;;;;4.32;50.99;96753.56;4190712;28;5836;-61
2023/01/27 15:47:35;;;;;;;;;;;;;;;4.27;50.97;96755.81;4192311;28;5859;-60
2023/01/27 15:49:41;;;;;;;;;;;;;;;4.21;51.04;96759.06;4195006;28;5797;-60
2023/01/27 15:51:46;;;;;;;;;;;;;;;4.19;50.94;96766.22;4186130;28;5707;-60
2023/01/27 15:53:52;;;;;;;;;;;;;;;4.18;51.10;96748.88;4201339;28;5686;-60
2023/01/27 15:55:57;;;;;;;;;;;;;;;4.13;51.07;96759.81;4196947;28;5849;-60
2023/01/27 15:58:11;;;;;;;;;;;;;;;4.13;51.09;96762.44;4195312;28;5902;-60
2023/01/27 16:00:27;;;;;;;;;;;;;;;4.08;51.28;96767.31;4191873;28;5817;-60
2023/01/27 16:02:31;;;;;;;;;;;;;;;4.04;51.08;96761.56;4187390;28;5782;-60
2023/01/27 16:04:34;;;;;;;;;;;;;;;4.00;51.17;96756.81;4193445;28;7738;-61
2023/01/27 16:06:48;;;;;;;;;;;;;;;3.98;51.21;96774.44;4190951;28;5695;-61
2023/01/27 16:08:53;;;;;;;;;;;;;;;3.89;51.27;96765.72;4199849;28;5698;-61
2023/01/27 16:11:25;;;;;;;;;;;;;;;3.85;51.40;96759.16;4199196;28;5682;-61
2023/01/27 16:13:30;;;;;;;;;;;;;;;3.96;51.28;96755.44;4195892;28;5726;-60
2023/01/27 16:15:34;;;;;;;;;;;;;;;4.03;51.01;96748.63;4189470;28;5822;-60
2023/01/27 16:17:56;;;;;;;;;;;;;;;3.97;51.16;96767.56;4188197;28;5682;-60
2023/01/27 16:20:22;;;;;;;;;;;;;;;3.90;51.39;96775.19;4189371;28;5877;-60
2023/01/27 16:22:28;;;;;;;;;;;;;;;3.83;51.30;96770.72;4189729;28;6625;-61
2023/01/27 16:24:35;;;;;;;;;;;;;;;3.79;51.52;96775.44;4187321;28;5795;-61
2023/01/27 16:26:43;;;;;;;;;;;;;;;3.84;51.51;96799.31;4189289;28;5822;-63
2023/01/27 16:28:49;;;;;;;;;;;;;;;3.86;51.51;96780.91;4195412;28;5697;-60
2023/01/27 16:31:03;;;;;;;;;;;;;;;3.89;51.39;96781.41;4196085;28;5908;-61
2023/01/27 16:33:15;;;;;;;;;;;;;;;3.79;51.35;96776.25;4199481;28;5769;-61
2023/01/27 16:35:21;;;;;;;;;;;;;;;3.77;51.50;96791.28;4196395;28;5784;-60
2023/01/27 16:37:28;;;;;;;;;;;;;;;3.76;51.55;96797.50;4198501;28;5698;-60
2023/01/27 16:39:37;;;;;;;;;;;;;;;3.72;51.58;96795.31;4196659;28;5719;-61
2023/01/27 16:41:52;;;;;;;;;;;;;;;3.70;51.79;96812.94;4188951;28;5690;-62
2023/01/27 16:44:01;;;;;;;;;;;;;;;3.67;51.77;96789.72;4198117;28;5749;-61
2023/01/27 16:46:04;;;;;;;;;;;;;;;3.69;51.72;96800.84;4191754;28;5923;-61
2023/01/27 16:48:19;;;;;;;;;;;;;;;3.65;51.77;96809.97;4193801;28;5781;-60
2023/01/27 16:50:32;;;;;;;;;;;;;;;3.65;51.81;96799.50;4195563;28;5690;-61
2023/01/27 16:52:38;;;;;;;;;;;;;;;3.65;51.84;96794.28;4194734;28;5703;-60
2023/01/27 16:54:49;;;;;;;;;;;;;;;3.64;51.96;96803.09;4192704;28;5766;-61
2023/01/27 16:56:52;;;;;;;;;;;;;;;3.62;51.82;96810.25;4197942;28;5686;-61
2023/01/27 16:59:00;;;;;;;;;;;;;;;3.66;51.88;96809.81;4199286;28;5840;-61
2023/01/27 17:01:03;;;;;;;;;;;;;;;3.63;51.99;96835.44;4199588;28;5817;-60
2023/01/27 17:03:18;;;;;;;;;;;;;;;3.58;51.93;96812.34;4198528;28;5753;-60
2023/01/27 17:05:22;;;;;;;;;;;;;;;3.64;51.90;96821.41;4199171;28;5695;-60
2023/01/27 17:07:26;;;;;;;;;;;;;;;3.67;51.96;96810.63;4199552;28;5785;-61